createdAt,value
2018-06-09T00:00:53.343Z,95626.03
2018-06-09T00:03:22.675Z,95627.47
2018-06-09T00:05:52.863Z,95633.02
2018-06-09T00:08:22.119Z,95634.22
2018-06-09T00:10:52.528Z,95633.64
2018-06-09T00:13:22.363Z,95631.52
2018-06-09T00:15:51.599Z,95624.28
2018-06-09T00:18:20.712Z,95627.63
2018-06-09T00:20:49.967Z,95628.75
2018-06-09T00:23:19.019Z,95626.62
2018-06-09T00:25:48.143Z,95619.17
2018-06-09T00:28:17.404Z,95610.02
2018-06-09T00:30:46.449Z,95608.64
2018-06-09T00:33:15.632Z,95606.66
2018-06-09T00:35:45.011Z,95599.31
2018-06-09T00:41:21.345Z,95607.95
2018-06-09T00:43:50.763Z,95610.99
2018-06-09T00:46:20.725Z,95615.81
2018-06-09T00:48:50.442Z,95613.92
2018-06-09T00:51:19.672Z,95613.32
2018-06-09T00:53:49.558Z,95620.26
2018-06-09T00:56:29.542Z,95615.84
2018-06-09T00:59:00.425Z,95620.26
2018-06-09T01:01:30.265Z,95623.56
2018-06-09T01:04:00.265Z,95621.86
2018-06-09T01:06:29.558Z,95628.07
2018-06-09T01:08:59.521Z,95628.38
2018-06-09T01:11:28.401Z,95623.36
2018-06-09T01:13:57.180Z,95620.34
2018-06-09T01:16:27.845Z,95617.64
2018-06-09T01:18:56.597Z,95613.02
2018-06-09T01:21:25.543Z,95617.52
2018-06-09T01:23:54.613Z,95620.75
2018-06-09T01:26:23.615Z,95615.33
2018-06-09T01:28:52.372Z,95608.41
2018-06-09T01:31:21.472Z,95608.41
2018-06-09T01:33:50.397Z,95607.59
2018-06-09T01:36:19.299Z,95597.28
2018-06-09T01:38:48.099Z,95595.52
2018-06-09T01:41:17.274Z,95603.34
2018-06-09T01:43:46.115Z,95594.13
2018-06-09T01:46:16.077Z,95589.11
2018-06-09T01:48:45.231Z,95581.16
2018-06-09T01:51:14.372Z,95578.82
2018-06-09T01:53:43.620Z,95568.84
2018-06-09T01:56:12.768Z,95561.20
2018-06-09T01:58:41.584Z,95554.10
2018-06-09T02:01:10.593Z,95551.78
2018-06-09T02:03:39.474Z,95551.96
2018-06-09T02:06:08.739Z,95548.78
2018-06-09T02:08:37.941Z,95543.24
2018-06-09T02:11:07.045Z,95536.44
2018-06-09T02:13:37.176Z,95539.73
2018-06-09T02:16:06.027Z,95544.42
2018-06-09T02:18:34.974Z,95543.80
2018-06-09T02:21:04.171Z,95546.70
2018-06-09T02:23:33.404Z,95544.70
2018-06-09T02:26:02.236Z,95540.02
2018-06-09T02:28:31.164Z,95537.78
2018-06-09T02:31:00.208Z,95539.43
2018-06-09T02:33:29.077Z,95533.27
2018-06-09T02:35:57.821Z,95531.58
2018-06-09T02:38:26.634Z,95527.66
2018-06-09T02:40:55.527Z,95524.56
2018-06-09T02:43:24.396Z,95526.47
2018-06-09T02:45:53.252Z,95529.89
2018-06-09T02:48:22.032Z,95528.66
2018-06-09T02:50:50.908Z,95526.45
2018-06-09T02:53:19.651Z,95529.06
2018-06-09T02:55:48.788Z,95524.20
2018-06-09T02:58:18.070Z,95527.33
2018-06-09T03:00:46.936Z,95520.09
2018-06-09T03:03:15.841Z,95523.44
2018-06-09T03:05:45.108Z,95531.05
2018-06-09T03:08:13.976Z,95528.22
2018-06-09T03:10:43.044Z,95534.67
2018-06-09T03:13:12.229Z,95540.52
2018-06-09T03:15:41.027Z,95545.05
2018-06-09T03:18:10.931Z,95549.77
2018-06-09T03:20:40.050Z,95548.73
2018-06-09T03:23:08.882Z,95552.63
2018-06-09T03:25:37.953Z,95556.19
2018-06-09T03:28:06.872Z,95560.83
2018-06-09T03:30:35.887Z,95563.05
2018-06-09T03:33:06.018Z,95562.98
2018-06-09T03:35:34.860Z,95567.80
2018-06-09T03:38:03.540Z,95563.00
2018-06-09T03:40:32.421Z,95566.13
2018-06-09T03:43:02.361Z,95569.47
2018-06-09T03:45:31.355Z,95571.48
2018-06-09T03:48:00.482Z,95580.30
2018-06-09T03:50:30.518Z,95580.30
2018-06-09T03:52:59.589Z,95587.23
2018-06-09T03:55:29.943Z,95583.27
2018-06-09T03:57:58.994Z,95588.55
2018-06-09T04:00:28.134Z,95599.49
2018-06-09T04:02:57.351Z,95598.48
2018-06-09T04:05:26.306Z,95593.92
2018-06-09T04:07:55.198Z,95595.52
2018-06-09T04:10:24.044Z,95598.11
2018-06-09T04:12:53.094Z,95607.91
2018-06-09T04:15:21.862Z,95602.02
2018-06-09T04:17:50.693Z,95604.91
2018-06-09T04:20:19.759Z,95606.88
2018-06-09T04:22:48.440Z,95614.94
2018-06-09T04:25:17.381Z,95609.92
2018-06-09T04:27:46.285Z,95611.42
2018-06-09T04:30:15.127Z,95620.47
2018-06-09T04:32:43.948Z,95621.41
2018-06-09T04:35:12.829Z,95613.84
2018-06-09T04:37:45.298Z,95610.69
2018-06-09T04:40:14.179Z,95611.35
2018-06-09T04:42:43.254Z,95610.25
2018-06-09T04:45:12.244Z,95604.22
2018-06-09T04:47:41.135Z,95590.02
2018-06-09T04:50:09.947Z,95597.23
2018-06-09T04:52:38.786Z,95597.03
2018-06-09T04:55:07.731Z,95593.32
2018-06-09T04:57:36.684Z,95590.65
2018-06-09T05:00:05.727Z,95583.66
2018-06-09T05:02:34.923Z,95589.89
2018-06-09T05:05:04.074Z,95587.98
2018-06-09T05:07:33.228Z,95586.06
2018-06-09T05:10:02.445Z,95585.78
2018-06-09T05:12:32.412Z,95587.78
2018-06-09T05:15:01.410Z,95590.95
2018-06-09T05:17:30.261Z,95600.69
2018-06-09T05:19:58.981Z,95605.63
2018-06-09T05:22:27.719Z,95601.23
2018-06-09T05:24:56.552Z,95600.33
2018-06-09T05:27:25.395Z,95613.41
2018-06-09T05:29:54.206Z,95641.50
2018-06-09T05:32:23.181Z,95664.03
2018-06-09T05:34:52.393Z,95661.10
2018-06-09T05:37:21.399Z,95664.03
2018-06-09T05:39:50.539Z,95676.67
2018-06-09T05:42:19.781Z,95683.80
2018-06-09T05:44:48.572Z,95683.80
2018-06-09T05:47:17.396Z,95682.91
2018-06-09T05:49:46.196Z,95693.93
2018-06-09T05:52:16.231Z,95702.59
2018-06-09T05:54:45.957Z,95707.11
2018-06-09T05:57:14.627Z,95703.98
2018-06-09T05:59:43.356Z,95713.83
2018-06-09T06:02:12.874Z,95716.84
2018-06-09T06:04:41.515Z,95707.30
2018-06-09T06:07:10.274Z,95701.89
2018-06-09T06:09:38.946Z,95705.41
2018-06-09T06:12:07.994Z,95700.09
2018-06-09T06:14:36.983Z,95718.45
2018-06-09T06:17:05.703Z,95723.38
2018-06-09T06:19:34.417Z,95729.91
2018-06-09T06:22:03.103Z,95726.10
2018-06-09T06:24:32.210Z,95736.53
2018-06-09T06:27:01.361Z,95738.04
2018-06-09T06:29:30.288Z,95731.95
2018-06-09T06:31:59.015Z,95742.00
2018-06-09T06:34:27.688Z,95740.89
2018-06-09T06:36:56.565Z,95746.66
2018-06-09T06:39:25.232Z,95742.80
2018-06-09T06:41:53.988Z,95739.00
2018-06-09T06:44:22.721Z,95737.30
2018-06-09T06:46:51.415Z,95736.88
2018-06-09T06:49:20.141Z,95740.33
2018-06-09T06:51:48.833Z,95746.55
2018-06-09T06:54:18.181Z,95747.48
2018-06-09T06:56:47.336Z,95746.02
2018-06-09T06:59:16.440Z,95738.14
2018-06-09T07:01:45.367Z,95726.66
2018-06-09T07:04:14.106Z,95729.16
2018-06-09T07:06:42.941Z,95733.41
2018-06-09T07:09:11.687Z,95729.82
2018-06-09T07:11:40.387Z,95717.97
2018-06-09T07:14:09.285Z,95720.09
2018-06-09T07:16:38.064Z,95726.41
2018-06-09T07:19:06.709Z,95720.77
2018-06-09T07:21:35.476Z,95723.45
2018-06-09T07:24:04.561Z,95719.58
2018-06-09T07:26:36.374Z,95718.96
2018-06-09T07:29:05.137Z,95724.02
2018-06-09T07:31:33.887Z,95732.50
2018-06-09T07:34:02.564Z,95726.56
2018-06-09T07:36:31.484Z,95738.96
2018-06-09T07:39:00.568Z,95732.55
2018-06-09T07:41:31.447Z,95732.28
2018-06-09T07:44:00.592Z,95733.30
2018-06-09T07:46:30.040Z,95732.14
2018-06-09T07:49:00.704Z,95733.35
2018-06-09T07:51:29.817Z,95726.74
2018-06-09T07:53:58.957Z,95727.08
2018-06-09T07:56:29.002Z,95725.19
2018-06-09T07:58:58.741Z,95729.86
2018-06-09T08:01:27.942Z,95736.20
2018-06-09T08:03:57.135Z,95727.16
2018-06-09T08:06:26.030Z,95719.88
2018-06-09T08:08:55.879Z,95716.08
2018-06-09T08:11:24.792Z,95718.70
2018-06-09T08:13:53.981Z,95715.22
2018-06-09T08:16:24.029Z,95714.41
2018-06-09T08:18:56.675Z,95716.08
2018-06-09T08:21:26.604Z,95719.02
2018-06-09T08:23:57.434Z,95722.50
2018-06-09T08:26:31.815Z,95727.30
2018-06-09T08:29:10.808Z,95727.59
2018-06-09T08:31:40.949Z,95724.27
2018-06-09T08:34:10.178Z,95721.61
2018-06-09T08:36:40.350Z,95722.05
2018-06-09T08:39:09.641Z,95726.77
2018-06-09T08:41:40.590Z,95719.24
2018-06-09T08:44:10.584Z,95715.71
2018-06-09T08:46:39.848Z,95710.25
2018-06-09T08:49:10.166Z,95710.69
2018-06-09T08:51:39.457Z,95709.80
2018-06-09T08:54:11.046Z,95715.00
2018-06-09T08:56:43.118Z,95716.67
2018-06-09T08:59:13.348Z,95720.32
2018-06-09T09:01:43.067Z,95715.72
2018-06-09T09:04:11.967Z,95718.83
2018-06-09T09:06:53.881Z,95728.61
2018-06-09T09:09:22.654Z,95725.63
2018-06-09T09:11:51.407Z,95722.67
2018-06-09T09:14:20.288Z,95724.63
2018-06-09T09:16:50.155Z,95727.48
2018-06-09T09:19:23.601Z,95730.30
2018-06-09T09:21:54.395Z,95724.97
2018-06-09T09:24:30.939Z,95737.30
2018-06-09T09:27:12.912Z,95732.18
2018-06-09T09:29:41.904Z,95735.92
2018-06-09T09:32:19.060Z,95738.94
2018-06-09T09:34:48.188Z,95737.59
2018-06-09T09:37:20.634Z,95741.15
2018-06-09T09:39:51.033Z,95737.44
2018-06-09T09:42:23.793Z,95744.97
2018-06-09T09:44:55.157Z,95747.55
2018-06-09T09:47:24.885Z,95747.45
2018-06-09T09:49:56.762Z,95750.48
2018-06-09T09:52:26.707Z,95749.56
2018-06-09T09:54:55.951Z,95764.27
2018-06-09T09:57:25.127Z,95760.55
2018-06-09T09:59:58.839Z,95768.16
2018-06-09T10:02:29.483Z,95759.34
2018-06-09T10:04:59.838Z,95758.27
2018-06-09T10:07:28.731Z,95750.69
2018-06-09T10:09:57.696Z,95750.09
2018-06-09T10:12:31.815Z,95741.73
2018-06-09T10:15:04.254Z,95746.64
2018-06-09T10:17:39.615Z,95751.21
2018-06-09T10:20:18.198Z,95745.80
2018-06-09T10:22:53.488Z,95742.63
2018-06-09T10:25:26.508Z,95740.15
2018-06-09T10:27:56.360Z,95744.86
2018-06-09T10:30:25.594Z,95753.11
2018-06-09T10:32:54.682Z,95752.77
2018-06-09T10:35:24.857Z,95752.86
2018-06-09T10:37:53.774Z,95747.41
2018-06-09T10:40:22.629Z,95746.55
2018-06-09T10:42:53.162Z,95742.44
2018-06-09T10:45:22.198Z,95745.59
2018-06-09T10:47:51.919Z,95737.66
2018-06-09T10:50:21.422Z,95742.51
2018-06-09T10:52:51.370Z,95734.17
2018-06-09T10:55:21.388Z,95737.05
2018-06-09T10:57:51.522Z,95727.46
2018-06-09T11:00:20.768Z,95726.96
2018-06-09T11:02:51.208Z,95725.55
2018-06-09T11:05:20.512Z,95718.45
2018-06-09T11:07:49.809Z,95712.88
2018-06-09T11:10:18.738Z,95715.03
2018-06-09T11:12:49.180Z,95715.77
2018-06-09T11:15:20.888Z,95714.45
2018-06-09T11:17:51.086Z,95714.36
2018-06-09T11:20:20.276Z,95714.33
2018-06-09T11:22:49.357Z,95719.06
2018-06-09T11:25:21.464Z,95712.92
2018-06-09T11:27:52.680Z,95715.52
2018-06-09T11:30:22.566Z,95710.78
2018-06-09T11:32:52.122Z,95710.30
2018-06-09T11:35:21.325Z,95713.29
2018-06-09T11:37:54.160Z,95715.44
2018-06-09T11:40:23.427Z,95711.02
2018-06-09T11:42:56.533Z,95715.50
2018-06-09T11:45:26.460Z,95713.41
2018-06-09T11:47:59.335Z,95717.95
2018-06-09T11:50:28.928Z,95716.41
2018-06-09T11:52:59.081Z,95707.86
2018-06-09T11:55:27.959Z,95708.20
2018-06-09T11:57:58.024Z,95718.13
2018-06-09T12:00:26.831Z,95638.69
2018-06-09T12:03:00.789Z,95717.17
2018-06-09T12:05:31.425Z,95712.39
2018-06-09T12:08:00.242Z,95708.39
2018-06-09T12:10:30.117Z,95700.91
2018-06-09T12:13:02.216Z,95704.86
2018-06-09T12:15:32.777Z,95702.55
2018-06-09T12:18:05.116Z,95704.12
2018-06-09T12:20:35.844Z,95699.32
2018-06-09T12:23:05.962Z,95697.04
2018-06-09T12:25:34.956Z,95701.77
2018-06-09T12:28:04.664Z,95701.52
2018-06-09T12:30:34.540Z,95697.77
2018-06-09T12:33:03.760Z,95694.30
2018-06-09T12:35:32.975Z,95695.68
2018-06-09T12:38:31.423Z,95687.98
2018-06-09T12:41:00.302Z,95683.26
2018-06-09T12:43:29.278Z,95684.50
2018-06-09T12:45:58.631Z,95680.16
2018-06-09T12:48:31.131Z,95680.47
2018-06-09T12:51:00.548Z,95680.79
2018-06-09T12:53:29.717Z,95685.38
2018-06-09T12:55:58.874Z,95679.28
2018-06-09T12:58:28.137Z,95679.37
2018-06-09T13:01:01.424Z,95679.55
2018-06-09T13:03:30.584Z,95679.92
2018-06-09T13:06:00.806Z,95670.61
2018-06-09T13:08:29.884Z,95667.80
2018-06-09T13:10:59.512Z,95662.70
2018-06-09T13:13:29.319Z,95660.47
2018-06-09T13:15:58.552Z,95660.65
2018-06-09T13:18:27.647Z,95651.25
2018-06-09T13:20:59.407Z,95655.47
2018-06-09T13:23:28.469Z,95648.05
2018-06-09T13:25:57.436Z,95646.64
2018-06-09T13:28:26.520Z,95649.45
2018-06-09T13:30:55.516Z,95651.67
2018-06-09T13:33:24.592Z,95653.36
2018-06-09T13:35:53.863Z,95657.75
2018-06-09T13:38:22.803Z,95652.45
2018-06-09T13:40:52.008Z,95650.52
2018-06-09T13:43:20.834Z,95651.30
2018-06-09T13:45:49.536Z,95653.70
2018-06-09T13:48:18.496Z,95660.67
2018-06-09T13:50:47.310Z,95663.65
2018-06-09T13:53:18.641Z,95649.63
2018-06-09T13:56:03.501Z,95651.47
2018-06-09T13:58:32.684Z,95640.71
2018-06-09T14:01:09.080Z,95639.58
2018-06-09T14:03:39.630Z,95636.19
2018-06-09T14:06:10.538Z,95623.00
2018-06-09T14:08:39.621Z,95620.81
2018-06-09T14:11:08.899Z,95617.95
2018-06-09T14:13:38.268Z,95614.10
2018-06-09T14:16:07.603Z,95610.78
2018-06-09T14:18:36.733Z,95602.13
2018-06-09T14:21:05.948Z,95600.64
2018-06-09T14:23:35.044Z,95592.14
2018-06-09T14:26:04.374Z,95585.50
2018-06-09T14:28:33.508Z,95590.23
2018-06-09T14:31:05.207Z,95580.06
2018-06-09T14:33:34.701Z,95579.55
2018-06-09T14:36:05.968Z,95576.03
2018-06-09T14:38:41.606Z,95569.17
2018-06-09T14:41:12.982Z,95565.63
2018-06-09T14:43:42.287Z,95564.14
2018-06-09T14:46:11.407Z,95573.30
2018-06-09T14:48:40.654Z,95566.45
2018-06-09T14:51:09.829Z,95574.12
2018-06-09T14:53:39.163Z,95576.97
2018-06-09T14:56:08.300Z,95578.64
2018-06-09T14:58:37.762Z,95575.65
2018-06-09T15:01:07.082Z,95573.19
2018-06-09T15:03:36.792Z,95580.63
2018-06-09T15:06:06.123Z,95568.83
2018-06-09T15:08:35.316Z,95574.42
2018-06-09T15:11:04.502Z,95574.72
2018-06-09T15:13:34.115Z,95573.72
2018-06-09T15:16:03.272Z,95574.66
2018-06-09T15:18:32.719Z,95570.45
2018-06-09T15:21:02.198Z,95566.33
2018-06-09T15:23:31.281Z,95568.02
2018-06-09T15:26:00.238Z,95560.89
2018-06-09T15:28:29.477Z,95571.24
2018-06-09T15:30:58.622Z,95565.92
2018-06-09T15:33:28.219Z,95568.75
2018-06-09T15:35:57.301Z,95566.77
2018-06-09T15:38:26.383Z,95567.45
2018-06-09T15:40:55.820Z,95558.05
2018-06-09T15:43:25.115Z,95560.95
2018-06-09T15:45:54.371Z,95564.18
2018-06-09T15:48:24.034Z,95563.63
2018-06-09T15:50:53.156Z,95561.36
2018-06-09T15:53:22.491Z,95557.25
2018-06-09T15:55:56.590Z,95562.80
2018-06-09T15:58:25.836Z,95561.41
2018-06-09T16:00:55.668Z,95559.86
2018-06-09T16:03:31.366Z,95560.50
2018-06-09T16:06:00.555Z,95555.40
2018-06-09T16:08:30.447Z,95547.80
2018-06-09T16:10:59.570Z,95554.23
2018-06-09T16:13:28.870Z,95553.93
2018-06-09T16:15:58.090Z,95558.52
2018-06-09T16:18:29.029Z,95561.88
2018-06-09T16:20:58.315Z,95560.12
2018-06-09T16:23:27.571Z,95562.73
2018-06-09T16:25:56.755Z,95562.53
2018-06-09T16:28:25.898Z,95563.02
2018-06-09T16:30:55.069Z,95563.56
2018-06-09T16:33:24.260Z,95568.63
2018-06-09T16:35:53.430Z,95575.56
2018-06-09T16:38:22.543Z,95575.14
2018-06-09T16:40:51.731Z,95576.02
2018-06-09T16:43:21.251Z,95586.48
2018-06-09T16:45:50.959Z,95584.64
2018-06-09T16:48:20.104Z,95588.33
2018-06-09T16:50:50.243Z,95584.69
2018-06-09T16:53:21.077Z,95584.73
2018-06-09T16:55:50.213Z,95593.76
2018-06-09T16:58:19.496Z,95593.35
2018-06-09T17:00:48.659Z,95594.86
2018-06-09T17:03:19.793Z,95596.06
2018-06-09T17:05:49.528Z,95597.42
2018-06-09T17:08:18.771Z,95597.13
2018-06-09T17:10:48.557Z,95605.27
2018-06-09T17:13:18.536Z,95606.85
2018-06-09T17:15:48.391Z,95614.53
2018-06-09T17:18:17.531Z,95614.23
2018-06-09T17:20:46.654Z,95616.20
2018-06-09T17:23:18.981Z,95616.19
2018-06-09T17:25:48.291Z,95615.68
2018-06-09T17:28:17.618Z,95619.52
2018-06-09T17:30:50.831Z,95627.55
2018-06-09T17:33:20.629Z,95621.80
2018-06-09T17:35:49.861Z,95625.95
2018-06-09T17:38:21.544Z,95628.73
2018-06-09T17:40:50.787Z,95633.66
2018-06-09T17:43:19.946Z,95640.22
2018-06-09T17:45:50.492Z,95636.36
2018-06-09T17:48:20.293Z,95636.72
2018-06-09T17:50:49.393Z,95634.55
2018-06-09T17:53:18.940Z,95637.12
2018-06-09T17:55:48.125Z,95639.23
2018-06-09T17:58:17.443Z,95642.31
2018-06-09T18:00:47.173Z,95648.39
2018-06-09T18:03:16.471Z,95641.58
2018-06-09T18:05:45.668Z,95645.47
2018-06-09T18:08:14.788Z,95639.97
2018-06-09T18:10:44.839Z,95643.30
2018-06-09T18:13:29.590Z,95653.56
2018-06-09T18:15:58.893Z,95659.73
2018-06-09T18:18:28.081Z,95655.54
2018-06-09T18:20:57.997Z,95660.98
2018-06-09T18:23:27.120Z,95662.50
2018-06-09T18:25:56.225Z,95661.12
2018-06-09T18:28:25.560Z,95661.73
2018-06-09T18:30:54.827Z,95665.14
2018-06-09T18:33:24.451Z,95671.78
2018-06-09T18:35:53.169Z,95671.79
2018-06-09T18:38:22.142Z,95678.96
2018-06-09T18:40:51.244Z,95690.22
2018-06-09T18:43:21.367Z,95685.98
2018-06-09T18:45:52.204Z,95681.21
2018-06-09T18:48:23.413Z,95683.97
2018-06-09T18:50:52.481Z,95680.40
2018-06-09T18:53:22.589Z,95684.94
2018-06-09T18:55:51.303Z,95689.70
2018-06-09T18:58:20.817Z,95696.78
2018-06-09T19:00:53.118Z,95696.25
2018-06-09T19:03:22.311Z,95696.27
2018-06-09T19:05:51.443Z,95699.05
2018-06-09T19:08:23.039Z,95695.62
2018-06-09T19:10:51.816Z,95694.53
2018-06-09T19:13:20.578Z,95699.71
2018-06-09T19:15:49.608Z,95702.48
2018-06-09T19:18:18.661Z,95700.36
2018-06-09T19:20:47.422Z,95703.34
2018-06-09T19:23:16.693Z,95699.33
2018-06-09T19:25:45.870Z,95693.34
2018-06-09T19:28:15.852Z,95699.25
2018-06-09T19:30:46.467Z,95704.28
2018-06-09T19:33:16.665Z,95699.25
2018-06-09T19:35:45.846Z,95701.29
2018-06-09T19:38:14.960Z,95701.02
2018-06-09T19:40:44.197Z,95704.42
2018-06-09T19:43:13.364Z,95704.65
2018-06-09T19:45:42.688Z,95703.91
2018-06-09T19:48:11.903Z,95672.05
2018-06-09T19:50:41.010Z,95713.91
2018-06-09T19:53:15.367Z,95713.03
2018-06-09T19:55:44.238Z,95706.55
2018-06-09T19:58:13.281Z,95705.02
2018-06-09T20:00:42.403Z,95711.98
2018-06-09T20:03:11.629Z,95711.06
2018-06-09T20:05:40.795Z,95711.13
2018-06-09T20:08:09.912Z,95711.38
2018-06-09T20:10:38.786Z,95710.47
2018-06-09T20:13:07.672Z,95712.77
2018-06-09T20:15:36.389Z,95712.23
2018-06-09T20:18:05.292Z,95703.78
2018-06-09T20:20:34.318Z,95708.78
2018-06-09T20:23:03.510Z,95710.66
2018-06-09T20:25:32.361Z,95710.09
2018-06-09T20:28:01.675Z,95712.73
2018-06-09T20:30:30.631Z,95715.83
2018-06-09T20:32:59.857Z,95714.61
2018-06-09T20:35:29.015Z,95719.78
2018-06-09T20:37:58.438Z,95727.92
2018-06-09T20:40:27.391Z,95730.75
2018-06-09T20:42:56.196Z,95733.41
2018-06-09T20:45:25.219Z,95732.39
2018-06-09T20:47:54.299Z,95730.73
2018-06-09T20:50:23.533Z,95731.86
2018-06-09T20:52:52.803Z,95727.72
2018-06-09T20:55:22.005Z,95734.33
2018-06-09T20:57:52.101Z,95732.73
2018-06-09T21:00:21.129Z,95728.92
2018-06-09T21:02:50.289Z,95726.41
2018-06-09T21:05:19.339Z,95727.50
2018-06-09T21:07:48.415Z,95728.33
2018-06-09T21:10:17.531Z,95725.74
2018-06-09T21:12:46.621Z,95721.15
2018-06-09T21:15:15.763Z,95715.63
2018-06-09T21:17:45.000Z,95716.77
2018-06-09T21:20:14.141Z,95722.88
2018-06-09T21:22:43.188Z,95725.18
2018-06-09T21:25:12.249Z,95721.75
2018-06-09T21:27:46.182Z,95730.73
2018-06-09T21:30:17.034Z,95726.48
2018-06-09T21:32:48.081Z,95725.67
2018-06-09T21:35:33.043Z,95719.91
2018-06-09T21:38:07.241Z,95719.70
2018-06-09T21:40:50.263Z,95714.68
2018-06-09T21:43:24.127Z,95717.82
2018-06-09T21:45:53.099Z,95718.00
2018-06-09T21:48:22.205Z,95713.51
2018-06-09T21:50:51.455Z,95716.25
2018-06-09T21:53:20.600Z,95715.36
2018-06-09T21:55:49.729Z,95718.58
2018-06-09T21:58:19.732Z,95719.61
2018-06-09T22:00:48.867Z,95716.83
2018-06-09T22:03:17.998Z,95714.83
2018-06-09T22:05:47.763Z,95710.00
2018-06-09T22:08:16.516Z,95714.70
2018-06-09T22:10:45.301Z,95711.61
2018-06-09T22:13:14.139Z,95714.73
2018-06-09T22:15:43.026Z,95698.45
2018-06-09T22:18:12.100Z,95705.30
2018-06-09T22:20:40.851Z,95699.96
2018-06-09T22:23:09.928Z,95701.29
2018-06-09T22:26:41.072Z,95700.88
2018-06-09T22:29:09.865Z,95707.70
2018-06-09T22:31:39.206Z,95699.05
2018-06-09T22:34:07.999Z,95705.39
2018-06-09T22:36:36.800Z,95707.71
2018-06-09T22:39:08.068Z,95707.02
2018-06-09T22:41:37.268Z,95704.09
2018-06-09T22:44:07.323Z,95700.27
2018-06-09T22:46:36.493Z,95705.31
2018-06-09T22:49:05.734Z,95704.79
2018-06-09T22:51:34.844Z,95702.09
2018-06-09T22:54:03.901Z,95704.11
2018-06-09T22:56:32.998Z,95699.88
2018-06-09T22:59:02.091Z,95691.34
2018-06-09T23:01:31.937Z,95681.80
2018-06-09T23:04:01.115Z,95675.86
2018-06-09T23:06:29.824Z,95677.28
2018-06-09T23:08:58.586Z,95674.34
2018-06-09T23:11:27.280Z,95677.33
2018-06-09T23:13:55.972Z,95680.44
2018-06-09T23:16:24.720Z,95674.23
2018-06-09T23:18:53.454Z,95675.70
2018-06-09T23:21:22.153Z,95670.08
2018-06-09T23:23:50.858Z,95673.78
2018-06-09T23:26:20.027Z,95675.48
2018-06-09T23:28:50.751Z,95676.76
2018-06-09T23:31:19.479Z,95676.52
2018-06-09T23:33:48.210Z,95677.13
2018-06-09T23:36:17.355Z,95676.12
2018-06-09T23:38:46.501Z,95673.53
2018-06-09T23:41:15.582Z,95681.77
2018-06-09T23:43:44.733Z,95677.36
2018-06-09T23:46:13.441Z,95687.56
2018-06-09T23:48:42.327Z,95681.87
2018-06-09T23:51:11.403Z,95680.78
2018-06-09T23:53:40.487Z,95677.78
2018-06-09T23:56:09.695Z,95670.84
2018-06-09T23:58:38.800Z,95665.92
